Time;durP1;ratioP1;P1;durP2;ratioP2;P2;SDS_P1;SDS_P2;PMS_P1;PMS_P2;Temp;Humidity;BMP_temperature;BMP_pressure;BME280_temperature;BME280_humidity;BME280_pressure;Samples;Min_cycle;Max_cycle;Signal;HPM_P1;HPM_P2
2023/12/13 00:00:53;;;;;;;2.23;1.43;;;;;;;6.56;100.00;98963.69;5091440;28;20202;-62
2023/12/13 00:03:21;;;;;;;5.33;1.60;;;;;;;6.54;100.00;98965.50;5091248;28;20202;-62
2023/12/13 00:05:48;;;;;;;1.60;1.50;;;;;;;6.55;100.00;98977.28;5091488;28;20202;-62
2023/12/13 00:08:19;;;;;;;2.23;1.13;;;;;;;6.64;100.00;98985.28;5091298;28;20593;-62
2023/12/13 00:10:46;;;;;;;1.20;0.83;;;;;;;6.79;100.00;98974.25;5091290;28;20874;-62
2023/12/13 00:13:12;;;;;;;1.93;1.00;;;;;;;6.89;100.00;98977.84;5091428;28;20194;-62
2023/12/13 00:15:39;;;;;;;1.10;0.90;;;;;;;7.01;100.00;98964.44;5091612;28;20198;-62
2023/12/13 00:18:06;;;;;;;1.10;1.00;;;;;;;7.05;100.00;98961.72;5091168;28;20220;-62
2023/12/13 00:20:34;;;;;;;2.03;1.37;;;;;;;7.07;100.00;98950.56;5091066;28;20197;-62
2023/12/13 00:23:01;;;;;;;1.10;0.93;;;;;;;7.11;100.00;98948.63;5091148;28;20202;-62
2023/12/13 00:25:28;;;;;;;1.53;1.00;;;;;;;7.20;100.00;98946.34;5091426;28;20237;-62
2023/12/13 00:27:55;;;;;;;1.40;0.90;;;;;;;7.24;100.00;98959.69;5089900;28;20194;-62
2023/12/13 00:30:21;;;;;;;1.63;0.93;;;;;;;7.28;100.00;98950.16;5090840;28;20689;-62
2023/12/13 00:32:48;;;;;;;1.30;1.00;;;;;;;7.44;100.00;98948.31;5091355;28;20206;-62
2023/12/13 00:35:15;;;;;;;2.10;1.43;;;;;;;7.43;100.00;98957.66;5090967;28;20202;-62
2023/12/13 00:37:43;;;;;;;3.03;1.30;;;;;;;7.46;100.00;98965.09;5090697;28;20201;-62
2023/12/13 00:40:11;;;;;;;1.70;1.13;;;;;;;7.61;100.00;98977.78;5090653;28;20229;-62
2023/12/13 00:42:38;;;;;;;0.77;0.73;;;;;;;7.80;100.00;98978.28;5090678;28;20691;-63
2023/12/13 00:45:06;;;;;;;1.50;1.40;;;;;;;7.79;100.00;98976.63;5090945;28;20241;-62
2023/12/13 00:47:33;;;;;;;4.70;2.23;;;;;;;7.67;100.00;98967.22;5090625;28;20194;-62
2023/12/13 00:49:59;;;;;;;1.80;1.50;;;;;;;7.72;100.00;98962.69;5090455;28;20198;-62
2023/12/13 00:52:26;;;;;;;3.70;1.70;;;;;;;7.61;100.00;98957.44;5090332;28;20193;-62
2023/12/13 00:54:55;;;;;;;1.03;0.93;;;;;;;7.63;100.00;98956.44;5090705;28;20197;-62
2023/12/13 00:57:21;;;;;;;2.33;1.43;;;;;;;7.60;100.00;98960.91;5090576;28;20255;-62
2023/12/13 00:59:48;;;;;;;1.17;1.07;;;;;;;7.53;100.00;98939.28;5090230;28;20202;-62
2023/12/13 01:02:15;;;;;;;1.47;1.20;;;;;;;7.55;100.00;98943.38;5090235;28;20194;-62
2023/12/13 01:04:44;;;;;;;2.97;1.60;;;;;;;7.52;100.00;98948.66;5090377;28;20229;-63
2023/12/13 01:07:11;;;;;;;5.77;3.10;;;;;;;7.36;100.00;98942.88;5090336;28;20209;-63
2023/12/13 01:09:39;;;;;;;5.60;2.47;;;;;;;7.16;100.00;98936.47;5090321;28;20198;-63
2023/12/13 01:12:07;;;;;;;3.83;1.97;;;;;;;6.90;100.00;98915.16;5090178;28;20690;-62
2023/12/13 01:14:34;;;;;;;3.90;1.83;;;;;;;6.79;100.00;98898.00;5090214;28;20202;-62
2023/12/13 01:17:01;;;;;;;2.27;1.90;;;;;;;6.74;100.00;98890.66;5089880;28;20730;-62
2023/12/13 01:19:28;;;;;;;2.47;1.57;;;;;;;6.68;100.00;98885.13;5089774;28;20201;-62
2023/12/13 01:21:55;;;;;;;2.20;1.63;;;;;;;6.78;100.00;98891.31;5089959;28;20205;-62
2023/12/13 01:24:22;;;;;;;2.90;1.80;;;;;;;6.80;100.00;98894.56;5089651;28;20233;-62
2023/12/13 01:26:48;;;;;;;2.90;1.73;;;;;;;6.72;100.00;98891.66;5089733;28;20213;-62
2023/12/13 01:29:16;;;;;;;6.03;2.13;;;;;;;6.83;100.00;98874.03;5089979;28;20209;-62
2023/12/13 01:31:43;;;;;;;1.70;1.17;;;;;;;7.02;100.00;98864.41;5089704;28;20671;-62
2023/12/13 01:34:10;;;;;;;6.70;1.50;;;;;;;7.06;100.00;98861.66;5089570;28;20202;-62
2023/12/13 01:36:41;;;;;;;1.60;1.50;;;;;;;7.14;100.00;98867.09;5089995;28;20206;-62
2023/12/13 01:39:08;;;;;;;2.13;1.33;;;;;;;7.18;100.00;98863.44;5089554;28;20620;-62
2023/12/13 01:41:35;;;;;;;1.83;1.47;;;;;;;7.20;100.00;98856.53;5090211;28;20198;-62
2023/12/13 01:44:02;;;;;;;2.30;1.43;;;;;;;7.20;100.00;98859.91;5089652;28;20205;-62
2023/12/13 01:46:31;;;;;;;3.40;1.13;;;;;;;7.00;100.00;98861.13;5089574;28;20202;-63
2023/12/13 01:48:58;;;;;;;2.33;1.50;;;;;;;6.95;100.00;98860.59;5089335;28;20198;-62
2023/12/13 01:51:25;;;;;;;2.03;1.40;;;;;;;6.86;100.00;98858.59;5089428;28;20198;-62
2023/12/13 01:53:52;;;;;;;1.67;1.37;;;;;;;6.80;100.00;98854.72;5089184;28;20667;-62
2023/12/13 01:56:19;;;;;;;1.10;1.00;;;;;;;6.87;100.00;98849.28;5089459;28;20253;-62
2023/12/13 01:58:46;;;;;;;0.77;0.70;;;;;;;6.78;100.00;98859.09;5089472;28;20592;-62
2023/12/13 02:01:13;;;;;;;3.43;1.20;;;;;;;6.77;100.00;98859.97;5089296;28;20198;-62
2023/12/13 02:03:42;;;;;;;2.00;1.40;;;;;;;6.84;100.00;98870.59;5089440;28;20198;-62
2023/12/13 02:06:08;;;;;;;2.27;1.47;;;;;;;6.82;100.00;98876.69;5088906;28;20229;-62
2023/12/13 02:08:35;;;;;;;1.03;0.90;;;;;;;6.62;100.00;98888.03;5089096;28;20224;-62
2023/12/13 02:11:02;;;;;;;2.13;1.13;;;;;;;6.36;100.00;98895.44;5089032;28;20222;-62
2023/12/13 02:13:29;;;;;;;1.53;1.30;;;;;;;6.34;100.00;98892.16;5089218;28;20193;-62
2023/12/13 02:15:56;;;;;;;1.37;0.93;;;;;;;6.20;100.00;98882.03;5089134;28;20209;-62
2023/12/13 02:18:23;;;;;;;1.97;1.47;;;;;;;6.04;100.00;98885.41;5088931;28;20198;-62
2023/12/13 02:20:52;;;;;;;1.53;1.43;;;;;;;5.79;100.00;98878.34;5089154;28;20209;-62
2023/12/13 02:23:20;;;;;;;1.43;1.23;;;;;;;5.56;100.00;98874.56;5088708;28;20229;-62
2023/12/13 02:25:53;;;;;;;0.97;0.73;;;;;;;5.54;100.00;98860.31;5088756;28;20233;-62
2023/12/13 02:28:21;;;;;;;1.37;0.83;;;;;;;5.53;100.00;98849.38;5088694;28;20556;-62
2023/12/13 02:30:49;;;;;;;3.03;1.37;;;;;;;5.61;100.00;98834.56;5087379;28;20626;-62
2023/12/13 02:33:16;;;;;;;1.57;1.43;;;;;;;5.73;100.00;98824.59;5087162;28;20202;-62
2023/12/13 02:35:42;;;;;;;0.53;0.53;;;;;;;5.85;100.00;98808.69;5088067;28;20221;-62
2023/12/13 02:38:09;;;;;;;3.17;1.50;;;;;;;5.80;100.00;98798.00;5088827;28;20208;-62
2023/12/13 02:40:38;;;;;;;2.77;1.43;;;;;;;5.85;100.00;98788.41;5088695;28;20206;-62
2023/12/13 02:43:05;;;;;;;3.20;1.50;;;;;;;5.92;100.00;98782.06;5088542;28;20225;-62
2023/12/13 02:45:32;;;;;;;4.97;1.63;;;;;;;5.96;100.00;98791.13;5088430;28;20302;-62
2023/12/13 02:47:59;;;;;;;1.30;0.87;;;;;;;6.12;100.00;98803.78;5088538;28;20283;-62
2023/12/13 02:50:26;;;;;;;0.73;0.70;;;;;;;6.29;100.00;98810.41;5088034;28;20194;-62
2023/12/13 02:52:53;;;;;;;0.83;0.83;;;;;;;6.54;100.00;98817.34;5088487;28;20198;-62
2023/12/13 02:55:20;;;;;;;2.67;1.20;;;;;;;6.58;100.00;98803.59;5088296;28;20221;-62
2023/12/13 02:57:48;;;;;;;1.40;1.10;;;;;;;6.76;100.00;98791.47;5088492;28;20202;-62
2023/12/13 03:00:15;;;;;;;2.83;1.40;;;;;;;6.70;100.00;98784.25;5088299;28;20202;-62
2023/12/13 03:02:42;;;;;;;1.87;1.00;;;;;;;6.64;100.00;98789.69;5088698;28;20563;-62
2023/12/13 03:05:09;;;;;;;1.47;1.00;;;;;;;6.69;100.00;98790.22;5088522;28;20225;-62
2023/12/13 03:07:36;;;;;;;5.97;1.40;;;;;;;6.75;100.00;98795.75;5088239;28;20583;-62
2023/12/13 03:10:03;;;;;;;3.23;1.43;;;;;;;6.86;100.00;98790.00;5088256;28;20209;-62
2023/12/13 03:12:29;;;;;;;1.13;0.87;;;;;;;7.05;100.00;98792.22;5088262;28;20679;-62
2023/12/13 03:14:58;;;;;;;2.60;1.00;;;;;;;7.24;100.00;98791.88;5088183;28;20233;-62
2023/12/13 03:17:25;;;;;;;2.13;1.07;;;;;;;7.27;100.00;98786.59;5088500;28;20198;-62
2023/12/13 03:19:51;;;;;;;3.03;1.43;;;;;;;7.36;100.00;98792.81;5088187;28;20206;-62
2023/12/13 03:22:18;;;;;;;2.97;1.40;;;;;;;7.34;100.00;98776.84;5088049;28;20206;-62
2023/12/13 03:24:45;;;;;;;1.93;1.23;;;;;;;7.43;100.00;98777.06;5088061;28;20737;-62
2023/12/13 03:27:12;;;;;;;1.03;0.73;;;;;;;7.44;100.00;98771.06;5088129;28;20202;-62
2023/12/13 03:29:39;;;;;;;3.33;1.47;;;;;;;7.33;100.00;98775.22;5088188;28;20683;-62
2023/12/13 03:32:08;;;;;;;1.20;1.10;;;;;;;7.19;100.00;98759.13;5088580;28;20202;-62
2023/12/13 03:34:34;;;;;;;2.00;1.43;;;;;;;7.21;100.00;98761.53;5087885;28;20631;-62
2023/12/13 03:37:02;;;;;;;3.30;1.20;;;;;;;7.20;100.00;98770.09;5088171;28;20195;-62
2023/12/13 03:39:28;;;;;;;2.90;1.50;;;;;;;7.10;100.00;98758.88;5088116;28;20198;-62
2023/12/13 03:41:55;;;;;;;1.03;0.93;;;;;;;7.21;100.00;98764.09;5087868;28;20209;-62
2023/12/13 03:44:22;;;;;;;0.57;0.57;;;;;;;7.38;100.00;98770.66;5087891;28;20210;-62
2023/12/13 03:46:49;;;;;;;0.83;0.80;;;;;;;7.47;100.00;98773.41;5087907;28;20626;-62
2023/12/13 03:49:17;;;;;;;1.03;0.90;;;;;;;7.29;100.00;98777.13;5087829;28;20670;-62
2023/12/13 03:51:46;;;;;;;2.47;0.80;;;;;;;7.25;100.00;98778.25;5088031;28;20202;-62
2023/12/13 03:54:13;;;;;;;1.80;0.97;;;;;;;7.19;100.00;98781.19;5087772;28;20682;-62
2023/12/13 03:56:40;;;;;;;1.23;0.67;;;;;;;7.28;100.00;98787.41;5087922;28;20210;-62
2023/12/13 03:59:07;;;;;;;0.90;0.77;;;;;;;7.30;100.00;98786.41;5087753;28;20210;-62
2023/12/13 04:01:33;;;;;;;0.50;0.50;;;;;;;7.38;100.00;98781.63;5087821;28;20717;-62
2023/12/13 04:04:00;;;;;;;0.50;0.43;;;;;;;7.61;100.00;98779.34;5091011;28;20201;-62
2023/12/13 04:06:28;;;;;;;1.00;0.70;;;;;;;7.56;100.00;98761.00;5091500;28;20229;-62
2023/12/13 04:08:55;;;;;;;2.47;0.90;;;;;;;7.45;100.00;98743.94;5091920;28;20251;-62
2023/12/13 04:11:22;;;;;;;0.83;0.83;;;;;;;7.37;100.00;98744.41;5091598;28;20285;-62
2023/12/13 04:13:49;;;;;;;2.97;1.77;;;;;;;7.16;100.00;98745.78;5091405;28;20197;-62
2023/12/13 04:16:15;;;;;;;0.70;0.67;;;;;;;7.16;100.00;98733.09;5091408;28;20194;-62
2023/12/13 04:18:42;;;;;;;2.43;1.27;;;;;;;7.05;100.00;98740.56;5091080;28;20198;-62
2023/12/13 04:21:09;;;;;;;2.13;1.40;;;;;;;7.06;100.00;98737.09;5091163;28;20247;-62
2023/12/13 04:23:38;;;;;;;3.60;1.40;;;;;;;7.17;100.00;98724.53;5090931;28;20198;-62
2023/12/13 04:26:05;;;;;;;2.13;0.73;;;;;;;7.28;100.00;98722.13;5090664;28;20242;-62
2023/12/13 04:28:32;;;;;;;3.40;1.40;;;;;;;7.35;100.00;98712.34;5091011;28;20229;-62
2023/12/13 04:30:59;;;;;;;1.20;0.77;;;;;;;7.41;100.00;98717.84;5091057;28;20205;-62
2023/12/13 04:33:26;;;;;;;1.80;0.83;;;;;;;7.55;99.58;98726.31;5090915;28;20698;-62
2023/12/13 04:35:58;;;;;;;1.17;1.07;;;;;;;7.55;99.29;98719.50;5090961;28;20370;-62
2023/12/13 04:38:25;;;;;;;1.07;0.67;;;;;;;7.62;98.49;98723.28;5090675;28;20205;-62
2023/12/13 04:40:53;;;;;;;2.20;1.00;;;;;;;7.62;98.30;98737.72;5090868;28;20209;-62
2023/12/13 04:43:20;;;;;;;3.43;1.50;;;;;;;7.57;97.60;98742.31;5090343;28;20206;-62
2023/12/13 04:45:47;;;;;;;2.03;1.33;;;;;;;7.54;98.01;98734.88;5089582;28;20244;-62
2023/12/13 04:48:14;;;;;;;1.40;1.07;;;;;;;7.58;97.13;98743.94;5089383;28;20209;-62
2023/12/13 04:50:41;;;;;;;2.07;1.30;;;;;;;7.48;97.00;98729.28;5090551;28;20207;-62
2023/12/13 04:53:09;;;;;;;1.20;0.90;;;;;;;7.55;96.88;98734.75;5090378;28;20198;-62
2023/12/13 04:55:36;;;;;;;1.77;0.97;;;;;;;7.51;97.41;98727.44;5090574;28;20198;-62
2023/12/13 04:58:05;;;;;;;2.07;1.00;;;;;;;7.46;97.69;98726.00;5090284;28;20256;-62
2023/12/13 05:00:34;;;;;;;2.03;1.50;;;;;;;7.38;96.69;98727.41;5090243;28;20198;-62
2023/12/13 05:03:01;;;;;;;1.10;0.77;;;;;;;7.52;95.34;98708.72;5090273;28;20750;-62
2023/12/13 05:05:28;;;;;;;3.70;1.60;;;;;;;7.51;94.21;98702.00;5090414;28;20240;-62
2023/12/13 05:07:55;;;;;;;1.33;0.87;;;;;;;7.37;94.07;98678.28;5090118;28;20194;-62
2023/12/13 05:10:21;;;;;;;0.90;0.90;;;;;;;7.53;93.72;98687.44;5090000;28;20218;-62
2023/12/13 05:12:48;;;;;;;1.77;0.83;;;;;;;7.41;94.40;98682.25;5089614;28;20206;-62
2023/12/13 05:15:16;;;;;;;1.40;0.90;;;;;;;7.44;94.80;98686.31;5089952;28;20621;-62
2023/12/13 05:17:44;;;;;;;2.10;1.47;;;;;;;7.37;95.24;98680.84;5089921;28;20202;-62
2023/12/13 05:20:11;;;;;;;2.33;1.37;;;;;;;7.37;95.26;98675.75;5090155;28;20198;-62
2023/12/13 05:22:38;;;;;;;0.70;0.57;;;;;;;7.34;96.18;98675.94;5089903;28;20691;-62
2023/12/13 05:25:06;;;;;;;1.87;1.27;;;;;;;7.03;98.10;98677.91;5089696;28;20209;-62
2023/12/13 05:27:32;;;;;;;2.17;1.10;;;;;;;6.89;100.00;98683.06;5089779;28;20212;-62
2023/12/13 05:29:59;;;;;;;0.50;0.50;;;;;;;6.73;100.00;98684.97;5089780;28;20212;-62
2023/12/13 05:32:27;;;;;;;1.57;0.83;;;;;;;6.57;100.00;98685.09;5089731;28;20209;-62
2023/12/13 05:34:54;;;;;;;2.20;1.20;;;;;;;6.46;100.00;98679.91;5089789;28;20210;-62
2023/12/13 05:37:21;;;;;;;1.10;1.00;;;;;;;6.46;100.00;98678.16;5089841;28;20201;-62
2023/12/13 05:39:48;;;;;;;1.10;1.00;;;;;;;6.57;100.00;98670.69;5089735;28;20194;-62
2023/12/13 05:42:15;;;;;;;1.37;0.93;;;;;;;6.64;100.00;98675.38;5089668;28;20225;-62
2023/12/13 05:44:41;;;;;;;1.83;1.23;;;;;;;6.61;100.00;98673.84;5089742;28;20201;-62
2023/12/13 05:47:08;;;;;;;1.00;0.70;;;;;;;6.56;100.00;98671.59;5089349;28;20236;-62
2023/12/13 05:49:37;;;;;;;0.63;0.63;;;;;;;6.38;100.00;98664.31;5089281;28;20208;-62
2023/12/13 05:52:04;;;;;;;0.90;0.90;;;;;;;6.15;100.00;98663.19;5089240;28;20266;-62
2023/12/13 05:54:31;;;;;;;0.70;0.70;;;;;;;6.06;100.00;98660.28;5089042;28;20706;-62
2023/12/13 05:56:57;;;;;;;2.17;1.20;;;;;;;5.99;100.00;98651.44;5089778;28;20385;-62
2023/12/13 05:59:24;;;;;;;2.50;1.37;;;;;;;5.93;100.00;98640.78;5089455;28;20630;-62
2023/12/13 06:01:51;;;;;;;2.23;1.30;;;;;;;5.92;100.00;98637.44;5089159;28;20202;-62
2023/12/13 06:04:18;;;;;;;0.90;0.90;;;;;;;5.87;100.00;98635.16;5089080;28;20204;-62
2023/12/13 06:06:46;;;;;;;1.17;1.07;;;;;;;5.83;100.00;98641.34;5088946;28;20609;-62
2023/12/13 06:09:14;;;;;;;1.40;1.00;;;;;;;5.73;100.00;98649.56;5089173;28;20201;-62
2023/12/13 06:11:40;;;;;;;2.50;1.13;;;;;;;5.67;100.00;98654.13;5089241;28;20651;-62
2023/12/13 06:14:07;;;;;;;2.00;1.27;;;;;;;5.62;100.00;98648.50;5089170;28;20194;-62
2023/12/13 06:16:34;;;;;;;1.43;1.07;;;;;;;5.68;100.00;98640.53;5088874;28;20221;-62
2023/12/13 06:19:01;;;;;;;2.37;1.17;;;;;;;5.70;100.00;98637.88;5088880;28;20197;-62
2023/12/13 06:21:28;;;;;;;1.27;0.77;;;;;;;5.77;100.00;98644.25;5088768;28;20628;-62
2023/12/13 06:23:56;;;;;;;0.90;0.83;;;;;;;5.87;100.00;98644.50;5088773;28;20216;-62
2023/12/13 06:26:23;;;;;;;1.73;1.40;;;;;;;6.00;100.00;98644.63;5088172;28;20286;-62
2023/12/13 06:28:50;;;;;;;1.33;1.20;;;;;;;6.30;100.00;98647.00;5088674;28;20197;-62
2023/12/13 06:31:17;;;;;;;2.03;1.10;;;;;;;6.27;100.00;98657.34;5088546;28;20209;-62
2023/12/13 06:33:44;;;;;;;0.70;0.70;;;;;;;6.38;100.00;98651.63;5088565;28;20697;-62
2023/12/13 06:36:11;;;;;;;0.80;0.80;;;;;;;6.45;100.00;98651.13;5088693;28;20701;-62
2023/12/13 06:38:37;;;;;;;6.57;2.80;;;;;;;6.55;100.00;98636.94;5088700;28;20205;-63
2023/12/13 06:41:06;;;;;;;4.57;2.30;;;;;;;6.68;100.00;98636.16;5088501;28;20226;-63
2023/12/13 06:43:33;;;;;;;1.90;1.47;;;;;;;6.86;99.03;98634.97;5088502;28;20210;-63
2023/12/13 06:46:00;;;;;;;1.10;1.03;;;;;;;6.96;98.84;98636.03;5088446;28;20229;-63
2023/12/13 06:48:28;;;;;;;2.30;1.10;;;;;;;6.98;100.00;98634.22;5088528;28;20197;-63
2023/12/13 06:50:55;;;;;;;1.40;1.30;;;;;;;7.08;99.50;98638.69;5088472;28;20205;-62
2023/12/13 06:53:22;;;;;;;1.07;0.70;;;;;;;6.98;99.79;98629.13;5088211;28;20829;-62
2023/12/13 06:55:49;;;;;;;0.97;0.90;;;;;;;7.13;100.00;98642.56;5088271;28;20213;-63
2023/12/13 06:58:17;;;;;;;0.97;0.57;;;;;;;7.11;100.00;98638.50;5088296;28;20584;-63
2023/12/13 07:00:44;;;;;;;1.30;1.03;;;;;;;7.23;100.00;98642.78;5088453;28;20700;-62
2023/12/13 07:03:10;;;;;;;0.77;0.53;;;;;;;7.15;98.85;98650.09;5088548;28;20189;-62
2023/12/13 07:05:37;;;;;;;5.10;1.80;;;;;;;7.32;96.30;98642.16;5088350;28;20210;-62
2023/12/13 07:08:04;;;;;;;0.87;0.87;;;;;;;7.45;95.11;98630.28;5088143;28;20205;-62
2023/12/13 07:10:31;;;;;;;1.13;0.90;;;;;;;7.56;96.06;98610.91;5088209;28;20708;-62
2023/12/13 07:12:58;;;;;;;3.37;1.40;;;;;;;7.62;94.35;98618.13;5088325;28;20194;-62
2023/12/13 07:15:26;;;;;;;2.17;1.43;;;;;;;7.78;95.73;98611.09;5088443;28;20202;-62
2023/12/13 07:17:53;;;;;;;0.67;0.67;;;;;;;7.90;96.62;98606.91;5088219;28;20686;-62
2023/12/13 07:20:21;;;;;;;1.27;1.17;;;;;;;8.13;97.59;98590.03;5088454;28;20198;-62
2023/12/13 07:22:49;;;;;;;0.77;0.67;;;;;;;8.12;93.48;98596.06;5087082;28;20210;-62
2023/12/13 07:25:16;;;;;;;4.33;1.70;;;;;;;8.28;91.96;98591.50;5086735;28;20767;-62
2023/12/13 07:27:43;;;;;;;8.70;3.33;;;;;;;8.27;93.64;98589.88;5086944;28;20397;-62
2023/12/13 07:30:10;;;;;;;2.00;1.13;;;;;;;8.38;92.10;98587.41;5087765;28;20248;-62
2023/12/13 07:32:40;;;;;;;1.03;0.90;;;;;;;8.67;92.87;98584.50;5088274;28;20198;-62
2023/12/13 07:35:07;;;;;;;1.07;0.97;;;;;;;8.72;98.58;98574.78;5088273;28;20206;-62
2023/12/13 07:37:35;;;;;;;1.20;1.00;;;;;;;8.77;99.87;98584.66;5090824;28;20212;-63
2023/12/13 07:40:02;;;;;;;0.83;0.80;;;;;;;8.82;100.00;98583.38;5091932;28;20194;-63
2023/12/13 07:42:28;;;;;;;1.47;1.17;;;;;;;8.67;100.00;98586.22;5091817;28;20292;-63
2023/12/13 07:44:55;;;;;;;1.47;1.00;;;;;;;8.58;99.63;98593.63;5091841;28;20209;-63
2023/12/13 07:47:22;;;;;;;1.47;1.00;;;;;;;8.72;100.00;98600.25;5091876;28;20230;-63
2023/12/13 07:49:50;;;;;;;2.73;1.20;;;;;;;8.68;99.46;98608.25;5091674;28;20416;-63
2023/12/13 07:52:17;;;;;;;1.73;1.20;;;;;;;8.84;98.81;98604.50;5092002;28;20247;-62
2023/12/13 07:54:44;;;;;;;2.23;1.30;;;;;;;8.88;100.00;98592.34;5091465;28;20227;-62
2023/12/13 07:57:11;;;;;;;1.97;1.27;;;;;;;8.77;100.00;98592.28;5091562;28;20198;-62
2023/12/13 07:59:38;;;;;;;2.23;1.33;;;;;;;8.59;100.00;98584.25;5091528;28;20202;-63
2023/12/13 08:02:06;;;;;;;2.90;1.90;;;;;;;8.54;100.00;98586.31;5091720;28;20205;-62
2023/12/13 08:04:33;;;;;;;2.90;1.50;;;;;;;8.42;100.00;98582.09;5091330;28;20744;-63
2023/12/13 08:07:01;;;;;;;1.77;1.23;;;;;;;8.17;100.00;98578.69;5091257;28;20229;-62
2023/12/13 08:09:28;;;;;;;2.27;1.73;;;;;;;8.00;100.00;98576.53;5091312;28;20288;-62
2023/12/13 08:11:55;;;;;;;3.03;1.70;;;;;;;7.77;100.00;98578.94;5091346;28;20206;-62
2023/12/13 08:14:25;;;;;;;3.53;1.77;;;;;;;7.77;100.00;98581.50;5091105;28;20663;-62
2023/12/13 08:16:52;;;;;;;2.73;1.73;;;;;;;7.80;100.00;98600.84;5091499;28;20221;-62
2023/12/13 08:19:19;;;;;;;5.43;2.00;;;;;;;7.82;100.00;98586.25;5090981;28;20206;-62
2023/12/13 08:21:46;;;;;;;3.17;1.93;;;;;;;7.71;100.00;98587.81;5091089;28;20201;-62
2023/12/13 08:24:14;;;;;;;4.73;2.17;;;;;;;7.85;100.00;98594.50;5091046;28;20205;-62
2023/12/13 08:26:41;;;;;;;1.80;1.47;;;;;;;7.81;100.00;98603.25;5090961;28;20237;-62
2023/12/13 08:29:08;;;;;;;2.33;1.97;;;;;;;7.92;100.00;98600.78;5091172;28;20194;-62
2023/12/13 08:31:35;;;;;;;7.73;2.40;;;;;;;8.00;100.00;98591.78;5090961;28;20650;-62
2023/12/13 08:34:02;;;;;;;5.07;1.50;;;;;;;8.12;100.00;98591.78;5090854;28;20255;-62
2023/12/13 08:36:29;;;;;;;2.10;1.47;;;;;;;7.90;100.00;98564.44;5091219;28;20213;-62
2023/12/13 08:38:56;;;;;;;1.87;1.17;;;;;;;7.49;100.00;98557.91;5090638;28;20615;-62
2023/12/13 08:41:24;;;;;;;2.23;1.20;;;;;;;7.74;100.00;98546.09;5090819;28;20205;-62
2023/12/13 08:43:50;;;;;;;1.10;1.00;;;;;;;7.88;100.00;98528.13;5090503;28;20611;-62
2023/12/13 08:46:17;;;;;;;2.97;2.00;;;;;;;8.05;100.00;98529.44;5090566;28;20224;-62
2023/12/13 08:48:45;;;;;;;1.83;1.53;;;;;;;8.12;100.00;98529.84;5089791;28;20225;-62
2023/12/13 08:51:12;;;;;;;8.70;1.20;;;;;;;8.09;100.00;98524.97;5090629;28;20206;-62
2023/12/13 08:53:39;;;;;;;1.60;1.17;;;;;;;7.99;100.00;98524.00;5090448;28;20209;-62
2023/12/13 08:56:07;;;;;;;3.07;1.60;;;;;;;8.05;100.00;98514.19;5090216;28;20218;-62
2023/12/13 08:58:36;;;;;;;2.30;1.20;;;;;;;8.07;100.00;98516.63;5090331;28;20201;-62
2023/12/13 09:01:04;;;;;;;1.10;1.00;;;;;;;8.07;100.00;98526.81;5090530;28;20459;-62
2023/12/13 09:03:30;;;;;;;1.60;1.20;;;;;;;8.06;100.00;98515.00;5090441;28;20203;-62
2023/12/13 09:05:57;;;;;;;1.70;0.97;;;;;;;8.07;100.00;98511.53;5090246;28;20198;-62
2023/12/13 09:08:24;;;;;;;1.70;1.10;;;;;;;8.16;100.00;98510.88;5090220;28;20240;-62
2023/12/13 09:10:51;;;;;;;2.53;0.90;;;;;;;8.22;100.00;98507.09;5090116;28;20194;-62
2023/12/13 09:13:18;;;;;;;1.23;1.13;;;;;;;8.36;100.00;98510.25;5089942;28;20198;-63
2023/12/13 09:15:46;;;;;;;3.37;1.17;;;;;;;8.49;100.00;98506.84;5090475;28;20229;-63
2023/12/13 09:18:13;;;;;;;2.60;1.30;;;;;;;8.72;100.00;98498.31;5089929;28;20194;-63
2023/12/13 09:20:40;;;;;;;2.63;1.03;;;;;;;8.97;100.00;98493.97;5089982;28;20212;-63
2023/12/13 09:23:07;;;;;;;1.10;0.87;;;;;;;8.99;100.00;98494.66;5089885;28;20601;-62
2023/12/13 09:25:34;;;;;;;1.73;1.30;;;;;;;8.97;100.00;98501.59;5089966;28;20717;-62
2023/12/13 09:28:01;;;;;;;1.47;1.13;;;;;;;9.21;100.00;98504.03;5089979;28;20237;-62
2023/12/13 09:30:28;;;;;;;1.23;1.13;;;;;;;9.52;100.00;98497.41;5090109;28;20205;-62
2023/12/13 09:32:56;;;;;;;1.00;0.90;;;;;;;9.69;99.84;98504.56;5089656;28;20209;-62
2023/12/13 09:35:23;;;;;;;2.30;1.53;;;;;;;9.68;99.38;98505.47;5089568;28;20206;-62
2023/12/13 09:37:56;;;;;;;1.30;1.13;;;;;;;9.62;99.39;98497.50;5089516;28;20598;-61
2023/12/13 09:40:23;;;;;;;1.50;1.03;;;;;;;9.59;98.91;98498.53;5089961;28;20442;-62
2023/12/13 09:42:50;;;;;;;2.00;1.37;;;;;;;9.70;96.95;98490.88;5089629;28;20206;-62
2023/12/13 09:45:20;;;;;;;3.60;1.73;;;;;;;9.61;97.26;98496.69;5089645;28;20197;-62
2023/12/13 09:47:49;;;;;;;3.40;1.40;;;;;;;9.61;97.38;98501.78;5089346;28;20286;-62
2023/12/13 09:50:17;;;;;;;1.30;1.20;;;;;;;9.77;98.07;98490.38;5089718;28;20274;-61
2023/12/13 09:52:45;;;;;;;2.47;1.93;;;;;;;9.73;97.96;98490.63;5089311;28;20198;-62
2023/12/13 09:55:12;;;;;;;2.30;1.40;;;;;;;9.77;99.38;98480.16;5089183;28;20202;-62
2023/12/13 09:57:39;;;;;;;2.70;1.37;;;;;;;9.05;100.00;98484.00;5089270;28;20232;-62
2023/12/13 10:00:07;;;;;;;3.13;1.63;;;;;;;9.41;100.00;98484.66;5089482;28;20201;-62
2023/12/13 10:02:34;;;;;;;2.40;1.90;;;;;;;9.52;98.67;98489.75;5089285;28;20206;-62
2023/12/13 10:05:04;;;;;;;6.70;2.90;;;;;;;9.58;99.33;98491.03;5089202;28;20707;-62
2023/12/13 10:07:32;;;;;;;9.40;2.93;;;;;;;9.39;100.00;98476.31;5089002;28;20230;-62
2023/12/13 10:09:59;;;;;;;3.23;2.33;;;;;;;9.62;100.00;98488.09;5089268;28;20198;-62
2023/12/13 10:12:26;;;;;;;2.37;1.57;;;;;;;9.86;99.82;98484.53;5089109;28;20198;-62
2023/12/13 10:14:53;;;;;;;3.40;1.93;;;;;;;10.13;100.00;98484.91;5088975;28;20198;-62
2023/12/13 10:17:21;;;;;;;1.50;1.33;;;;;;;10.13;100.00;98471.34;5088888;28;20194;-63
2023/12/13 10:19:48;;;;;;;4.33;1.67;;;;;;;10.36;100.00;98482.31;5088863;28;20198;-62
2023/12/13 10:22:17;;;;;;;3.53;1.70;;;;;;;10.52;98.89;98464.75;5089030;28;20206;-63
2023/12/13 10:24:46;;;;;;;2.13;1.53;;;;;;;10.57;97.74;98465.19;5088754;28;20618;-62
2023/12/13 10:27:13;;;;;;;1.87;1.50;;;;;;;10.47;100.00;98458.41;5088610;28;20229;-62
2023/12/13 10:29:40;;;;;;;3.70;1.70;;;;;;;10.50;99.36;98459.00;5088670;28;20194;-62
2023/12/13 10:32:07;;;;;;;2.80;1.60;;;;;;;10.43;100.00;98447.63;5088714;28;20588;-62
2023/12/13 10:34:33;;;;;;;2.63;1.73;;;;;;;10.45;100.00;98444.97;5088773;28;20205;-62
2023/12/13 10:37:01;;;;;;;1.80;1.23;;;;;;;10.43;100.00;98455.28;5088653;28;20197;-62
2023/12/13 10:39:30;;;;;;;3.00;1.47;;;;;;;9.93;100.00;98442.28;5088396;28;20202;-62
2023/12/13 10:42:00;;;;;;;5.43;2.30;;;;;;;10.13;100.00;98441.50;5088633;28;20198;-62
2023/12/13 10:44:32;;;;;;;3.03;2.03;;;;;;;10.12;100.00;98429.66;5088539;28;20198;-63
2023/12/13 10:47:00;;;;;;;3.03;1.63;;;;;;;10.38;100.00;98429.31;5088389;28;20213;-63
2023/12/13 10:49:28;;;;;;;3.23;2.07;;;;;;;10.31;100.00;98433.31;5088590;28;20201;-63
2023/12/13 10:51:57;;;;;;;4.23;2.20;;;;;;;10.20;100.00;98411.94;5088458;28;20202;-63
2023/12/13 10:54:24;;;;;;;3.30;1.60;;;;;;;9.99;100.00;98418.81;5088504;28;20209;-62
2023/12/13 10:56:52;;;;;;;1.97;1.53;;;;;;;9.92;100.00;98422.81;5088243;28;20209;-62
2023/12/13 10:59:21;;;;;;;2.83;1.73;;;;;;;9.91;100.00;98410.94;5088221;28;20201;-63
2023/12/13 11:01:49;;;;;;;2.27;1.77;;;;;;;9.67;100.00;98413.72;5088342;28;20205;-62
2023/12/13 11:04:17;;;;;;;3.43;1.87;;;;;;;9.50;100.00;98402.28;5088380;28;20209;-62
2023/12/13 11:06:45;;;;;;;2.10;1.73;;;;;;;9.43;100.00;98391.75;5088455;28;20229;-63
2023/12/13 11:09:13;;;;;;;2.03;1.63;;;;;;;9.46;100.00;98390.72;5087109;28;20680;-63
2023/12/13 11:11:41;;;;;;;1.90;1.40;;;;;;;9.48;100.00;98378.63;5088664;28;20747;-62
2023/12/13 11:14:09;;;;;;;1.67;1.47;;;;;;;9.44;100.00;98372.16;5091431;28;20240;-62
2023/12/13 11:16:41;;;;;;;2.33;1.60;;;;;;;9.52;100.00;98359.59;5092424;28;20262;-62
2023/12/13 11:19:12;;;;;;;6.00;2.13;;;;;;;9.52;100.00;98364.72;5092548;28;20205;-62
2023/12/13 11:21:41;;;;;;;3.53;1.87;;;;;;;9.67;100.00;98358.38;5092259;28;20572;-62
2023/12/13 11:24:13;;;;;;;2.87;1.97;;;;;;;9.61;100.00;98358.88;5092220;28;20218;-62
2023/12/13 11:26:46;;;;;;;1.97;1.60;;;;;;;9.70;100.00;98360.69;5092497;28;20225;-62
2023/12/13 11:29:17;;;;;;;2.70;1.50;;;;;;;9.71;100.00;98353.81;5092072;28;20679;-62
2023/12/13 11:31:56;;;;;;;2.77;1.90;;;;;;;9.83;100.00;98349.47;5092364;28;20326;-62
2023/12/13 11:34:38;;;;;;;2.43;1.60;;;;;;;9.93;100.00;98337.59;5091988;28;20573;-62